sensor_id;sensor_type;location;lat;lon;timestamp;P1;durP1;ratioP1;P2;durP2;ratioP2
37559;SDS011;23398;50.928;7.084;2023-03-02T00:01:39;5.27;;;3.43;;
37559;SDS011;23398;50.928;7.084;2023-03-02T00:04:13;5.50;;;3.60;;
37559;SDS011;23398;50.928;7.084;2023-03-02T00:06:44;6.10;;;3.73;;
37559;SDS011;23398;50.928;7.084;2023-03-02T00:09:12;5.93;;;3.90;;
37559;SDS011;23398;50.928;7.084;2023-03-02T00:11:38;7.70;;;3.63;;
37559;SDS011;23398;50.928;7.084;2023-03-02T00:14:04;5.57;;;3.67;;
37559;SDS011;23398;50.928;7.084;2023-03-02T00:16:30;5.30;;;3.70;;
37559;SDS011;23398;50.928;7.084;2023-03-02T00:18:55;5.73;;;3.47;;
37559;SDS011;23398;50.928;7.084;2023-03-02T00:21:21;5.20;;;3.33;;
37559;SDS011;23398;50.928;7.084;2023-03-02T00:23:48;5.07;;;3.53;;
37559;SDS011;23398;50.928;7.084;2023-03-02T00:26:14;5.70;;;3.70;;
37559;SDS011;23398;50.928;7.084;2023-03-02T00:28:40;5.83;;;3.90;;
37559;SDS011;23398;50.928;7.084;2023-03-02T00:31:05;5.53;;;3.73;;
37559;SDS011;23398;50.928;7.084;2023-03-02T00:33:31;6.80;;;3.80;;
37559;SDS011;23398;50.928;7.084;2023-03-02T00:35:57;5.57;;;3.60;;
37559;SDS011;23398;50.928;7.084;2023-03-02T00:38:23;4.80;;;3.40;;
37559;SDS011;23398;50.928;7.084;2023-03-02T00:40:48;5.17;;;3.40;;
37559;SDS011;23398;50.928;7.084;2023-03-02T00:43:15;5.00;;;3.27;;
37559;SDS011;23398;50.928;7.084;2023-03-02T00:45:40;5.10;;;3.30;;
37559;SDS011;23398;50.928;7.084;2023-03-02T00:48:06;5.43;;;3.90;;
37559;SDS011;23398;50.928;7.084;2023-03-02T00:50:32;5.30;;;3.90;;
37559;SDS011;23398;50.928;7.084;2023-03-02T00:52:57;6.07;;;3.97;;
37559;SDS011;23398;50.928;7.084;2023-03-02T00:55:23;6.60;;;4.37;;
37559;SDS011;23398;50.928;7.084;2023-03-02T00:57:51;4.70;;;3.67;;
37559;SDS011;23398;50.928;7.084;2023-03-02T01:00:21;6.80;;;3.77;;
37559;SDS011;23398;50.928;7.084;2023-03-02T01:02:47;5.10;;;3.83;;
37559;SDS011;23398;50.928;7.084;2023-03-02T01:05:13;6.40;;;3.67;;
37559;SDS011;23398;50.928;7.084;2023-03-02T01:07:40;4.97;;;3.60;;
37559;SDS011;23398;50.928;7.084;2023-03-02T01:10:06;5.33;;;3.97;;
37559;SDS011;23398;50.928;7.084;2023-03-02T01:12:32;6.13;;;3.50;;
37559;SDS011;23398;50.928;7.084;2023-03-02T01:14:58;5.57;;;3.47;;
37559;SDS011;23398;50.928;7.084;2023-03-02T01:17:23;7.27;;;3.57;;
37559;SDS011;23398;50.928;7.084;2023-03-02T01:19:49;5.30;;;3.43;;
37559;SDS011;23398;50.928;7.084;2023-03-02T01:22:16;5.40;;;3.50;;
37559;SDS011;23398;50.928;7.084;2023-03-02T01:24:42;5.57;;;3.40;;
37559;SDS011;23398;50.928;7.084;2023-03-02T01:27:08;6.87;;;4.00;;
37559;SDS011;23398;50.928;7.084;2023-03-02T01:29:33;6.57;;;4.10;;
37559;SDS011;23398;50.928;7.084;2023-03-02T01:32:00;8.83;;;4.27;;
37559;SDS011;23398;50.928;7.084;2023-03-02T01:34:27;5.40;;;3.47;;
37559;SDS011;23398;50.928;7.084;2023-03-02T01:36:52;5.47;;;3.43;;
37559;SDS011;23398;50.928;7.084;2023-03-02T01:39:18;5.47;;;3.47;;
37559;SDS011;23398;50.928;7.084;2023-03-02T01:41:46;6.03;;;3.70;;
37559;SDS011;23398;50.928;7.084;2023-03-02T01:46:57;7.50;;;3.90;;
37559;SDS011;23398;50.928;7.084;2023-03-02T01:49:23;5.00;;;3.50;;
37559;SDS011;23398;50.928;7.084;2023-03-02T01:51:48;5.70;;;3.93;;
37559;SDS011;23398;50.928;7.084;2023-03-02T01:54:15;7.00;;;4.03;;
37559;SDS011;23398;50.928;7.084;2023-03-02T01:56:47;5.50;;;3.67;;
37559;SDS011;23398;50.928;7.084;2023-03-02T01:59:15;7.53;;;3.67;;
37559;SDS011;23398;50.928;7.084;2023-03-02T02:01:44;8.20;;;4.53;;
37559;SDS011;23398;50.928;7.084;2023-03-02T02:04:14;5.87;;;3.67;;
37559;SDS011;23398;50.928;7.084;2023-03-02T02:06:45;5.67;;;3.80;;
37559;SDS011;23398;50.928;7.084;2023-03-02T02:09:15;6.43;;;3.60;;
37559;SDS011;23398;50.928;7.084;2023-03-02T02:11:43;6.40;;;3.83;;
37559;SDS011;23398;50.928;7.084;2023-03-02T02:14:09;5.73;;;3.67;;
37559;SDS011;23398;50.928;7.084;2023-03-02T02:16:36;5.17;;;3.50;;
37559;SDS011;23398;50.928;7.084;2023-03-02T02:19:03;6.37;;;3.67;;
37559;SDS011;23398;50.928;7.084;2023-03-02T02:21:36;6.47;;;3.87;;
37559;SDS011;23398;50.928;7.084;2023-03-02T02:26:49;6.07;;;3.60;;
37559;SDS011;23398;50.928;7.084;2023-03-02T02:29:21;6.83;;;3.40;;
37559;SDS011;23398;50.928;7.084;2023-03-02T02:31:55;4.27;;;3.23;;
37559;SDS011;23398;50.928;7.084;2023-03-02T02:34:44;5.67;;;3.37;;
37559;SDS011;23398;50.928;7.084;2023-03-02T02:37:40;6.03;;;3.57;;
37559;SDS011;23398;50.928;7.084;2023-03-02T02:40:35;6.03;;;3.77;;
37559;SDS011;23398;50.928;7.084;2023-03-02T02:43:05;6.70;;;3.87;;
37559;SDS011;23398;50.928;7.084;2023-03-02T02:45:33;5.37;;;3.60;;
37559;SDS011;23398;50.928;7.084;2023-03-02T02:48:00;5.00;;;3.40;;
37559;SDS011;23398;50.928;7.084;2023-03-02T02:50:30;5.13;;;3.50;;
37559;SDS011;23398;50.928;7.084;2023-03-02T02:53:19;6.30;;;3.30;;
37559;SDS011;23398;50.928;7.084;2023-03-02T02:55:46;5.33;;;3.53;;
37559;SDS011;23398;50.928;7.084;2023-03-02T02:58:27;4.53;;;3.03;;
37559;SDS011;23398;50.928;7.084;2023-03-02T03:00:58;5.00;;;3.37;;
37559;SDS011;23398;50.928;7.084;2023-03-02T03:03:25;5.03;;;3.43;;
37559;SDS011;23398;50.928;7.084;2023-03-02T03:05:55;5.80;;;4.07;;
37559;SDS011;23398;50.928;7.084;2023-03-02T03:11:10;4.57;;;3.27;;
37559;SDS011;23398;50.928;7.084;2023-03-02T03:13:38;5.43;;;3.43;;
37559;SDS011;23398;50.928;7.084;2023-03-02T03:16:05;5.07;;;3.40;;
37559;SDS011;23398;50.928;7.084;2023-03-02T03:18:33;5.77;;;3.53;;
37559;SDS011;23398;50.928;7.084;2023-03-02T03:20:59;4.87;;;3.20;;
37559;SDS011;23398;50.928;7.084;2023-03-02T03:23:25;6.17;;;3.90;;
37559;SDS011;23398;50.928;7.084;2023-03-02T03:25:50;6.40;;;3.87;;
37559;SDS011;23398;50.928;7.084;2023-03-02T03:28:16;5.57;;;3.53;;
37559;SDS011;23398;50.928;7.084;2023-03-02T03:30:42;6.17;;;3.70;;
37559;SDS011;23398;50.928;7.084;2023-03-02T03:33:08;5.80;;;3.57;;
37559;SDS011;23398;50.928;7.084;2023-03-02T03:35:36;5.47;;;3.50;;
37559;SDS011;23398;50.928;7.084;2023-03-02T03:38:03;5.17;;;3.40;;
37559;SDS011;23398;50.928;7.084;2023-03-02T03:40:30;6.07;;;3.60;;
37559;SDS011;23398;50.928;7.084;2023-03-02T03:42:59;6.07;;;3.70;;
37559;SDS011;23398;50.928;7.084;2023-03-02T03:45:25;6.33;;;3.50;;
37559;SDS011;23398;50.928;7.084;2023-03-02T03:47:51;4.80;;;3.40;;
37559;SDS011;23398;50.928;7.084;2023-03-02T03:50:17;4.30;;;3.20;;
37559;SDS011;23398;50.928;7.084;2023-03-02T03:52:43;5.47;;;3.47;;
37559;SDS011;23398;50.928;7.084;2023-03-02T03:55:09;3.87;;;3.10;;
37559;SDS011;23398;50.928;7.084;2023-03-02T03:57:35;6.13;;;3.37;;
37559;SDS011;23398;50.928;7.084;2023-03-02T04:00:00;6.03;;;3.57;;
37559;SDS011;23398;50.928;7.084;2023-03-02T04:02:30;4.97;;;3.30;;
37559;SDS011;23398;50.928;7.084;2023-03-02T04:04:55;5.13;;;3.40;;
37559;SDS011;23398;50.928;7.084;2023-03-02T04:07:30;4.77;;;3.27;;
37559;SDS011;23398;50.928;7.084;2023-03-02T04:09:56;5.27;;;3.43;;
37559;SDS011;23398;50.928;7.084;2023-03-02T04:12:31;4.50;;;3.27;;
37559;SDS011;23398;50.928;7.084;2023-03-02T04:14:58;7.10;;;4.03;;
37559;SDS011;23398;50.928;7.084;2023-03-02T04:17:23;6.73;;;3.93;;
37559;SDS011;23398;50.928;7.084;2023-03-02T04:19:49;6.13;;;3.40;;
37559;SDS011;23398;50.928;7.084;2023-03-02T04:22:15;4.47;;;3.10;;
37559;SDS011;23398;50.928;7.084;2023-03-02T04:24:41;5.77;;;3.33;;
37559;SDS011;23398;50.928;7.084;2023-03-02T04:27:07;6.13;;;3.23;;
37559;SDS011;23398;50.928;7.084;2023-03-02T04:29:33;4.60;;;3.07;;
37559;SDS011;23398;50.928;7.084;2023-03-02T04:31:59;5.67;;;3.30;;
37559;SDS011;23398;50.928;7.084;2023-03-02T04:34:25;4.37;;;3.13;;
37559;SDS011;23398;50.928;7.084;2023-03-02T04:36:50;5.03;;;3.30;;
37559;SDS011;23398;50.928;7.084;2023-03-02T04:39:17;5.10;;;3.47;;
37559;SDS011;23398;50.928;7.084;2023-03-02T04:41:44;5.40;;;3.30;;
37559;SDS011;23398;50.928;7.084;2023-03-02T04:44:09;6.17;;;3.37;;
37559;SDS011;23398;50.928;7.084;2023-03-02T04:46:36;6.03;;;3.93;;
37559;SDS011;23398;50.928;7.084;2023-03-02T04:49:02;6.63;;;3.53;;
37559;SDS011;23398;50.928;7.084;2023-03-02T04:51:30;6.03;;;3.60;;
37559;SDS011;23398;50.928;7.084;2023-03-02T04:54:05;4.97;;;3.10;;
37559;SDS011;23398;50.928;7.084;2023-03-02T04:56:34;4.83;;;3.60;;
37559;SDS011;23398;50.928;7.084;2023-03-02T04:59:00;8.00;;;3.77;;
37559;SDS011;23398;50.928;7.084;2023-03-02T05:01:26;5.40;;;3.77;;
37559;SDS011;23398;50.928;7.084;2023-03-02T05:03:52;7.10;;;3.70;;
37559;SDS011;23398;50.928;7.084;2023-03-02T05:06:18;5.77;;;3.70;;
37559;SDS011;23398;50.928;7.084;2023-03-02T05:08:45;7.40;;;3.93;;
37559;SDS011;23398;50.928;7.084;2023-03-02T05:11:13;6.60;;;3.57;;
37559;SDS011;23398;50.928;7.084;2023-03-02T05:13:46;5.30;;;3.53;;
37559;SDS011;23398;50.928;7.084;2023-03-02T05:16:20;7.47;;;4.10;;
37559;SDS011;23398;50.928;7.084;2023-03-02T05:18:47;6.10;;;4.00;;
37559;SDS011;23398;50.928;7.084;2023-03-02T05:21:13;5.77;;;3.80;;
37559;SDS011;23398;50.928;7.084;2023-03-02T05:23:40;5.50;;;3.53;;
37559;SDS011;23398;50.928;7.084;2023-03-02T05:26:07;5.87;;;3.47;;
37559;SDS011;23398;50.928;7.084;2023-03-02T05:28:33;5.57;;;3.67;;
37559;SDS011;23398;50.928;7.084;2023-03-02T05:30:59;6.57;;;3.83;;
37559;SDS011;23398;50.928;7.084;2023-03-02T05:33:26;6.10;;;3.73;;
37559;SDS011;23398;50.928;7.084;2023-03-02T05:35:52;8.87;;;4.00;;
37559;SDS011;23398;50.928;7.084;2023-03-02T05:38:18;4.70;;;3.50;;
37559;SDS011;23398;50.928;7.084;2023-03-02T05:40:43;7.43;;;4.10;;
37559;SDS011;23398;50.928;7.084;2023-03-02T05:43:10;6.10;;;3.50;;
37559;SDS011;23398;50.928;7.084;2023-03-02T05:45:40;5.07;;;3.20;;
37559;SDS011;23398;50.928;7.084;2023-03-02T05:48:06;9.70;;;4.90;;
37559;SDS011;23398;50.928;7.084;2023-03-02T05:50:31;8.57;;;4.30;;
37559;SDS011;23398;50.928;7.084;2023-03-02T05:52:57;7.67;;;4.37;;
37559;SDS011;23398;50.928;7.084;2023-03-02T05:55:24;7.27;;;4.37;;
37559;SDS011;23398;50.928;7.084;2023-03-02T05:57:50;6.83;;;4.23;;
37559;SDS011;23398;50.928;7.084;2023-03-02T06:00:17;6.50;;;4.10;;
37559;SDS011;23398;50.928;7.084;2023-03-02T06:02:43;6.50;;;3.93;;
37559;SDS011;23398;50.928;7.084;2023-03-02T06:05:13;7.53;;;4.07;;
37559;SDS011;23398;50.928;7.084;2023-03-02T06:07:40;7.77;;;3.60;;
37559;SDS011;23398;50.928;7.084;2023-03-02T06:10:07;5.40;;;3.87;;
37559;SDS011;23398;50.928;7.084;2023-03-02T06:12:33;6.13;;;3.63;;
37559;SDS011;23398;50.928;7.084;2023-03-02T06:14:59;6.57;;;3.73;;
37559;SDS011;23398;50.928;7.084;2023-03-02T06:17:25;6.60;;;3.87;;
37559;SDS011;23398;50.928;7.084;2023-03-02T06:19:50;6.10;;;3.93;;
37559;SDS011;23398;50.928;7.084;2023-03-02T06:22:16;6.77;;;4.17;;
37559;SDS011;23398;50.928;7.084;2023-03-02T06:24:42;6.60;;;4.07;;
37559;SDS011;23398;50.928;7.084;2023-03-02T06:27:07;6.77;;;3.60;;
37559;SDS011;23398;50.928;7.084;2023-03-02T06:29:33;5.10;;;3.50;;
37559;SDS011;23398;50.928;7.084;2023-03-02T06:31:59;5.47;;;3.57;;
37559;SDS011;23398;50.928;7.084;2023-03-02T06:34:24;6.30;;;3.87;;
37559;SDS011;23398;50.928;7.084;2023-03-02T06:36:50;8.30;;;4.10;;
37559;SDS011;23398;50.928;7.084;2023-03-02T06:39:16;10.07;;;4.80;;
37559;SDS011;23398;50.928;7.084;2023-03-02T06:41:42;8.17;;;4.57;;
37559;SDS011;23398;50.928;7.084;2023-03-02T06:44:08;8.30;;;4.10;;
37559;SDS011;23398;50.928;7.084;2023-03-02T06:46:35;7.43;;;4.07;;
37559;SDS011;23398;50.928;7.084;2023-03-02T06:49:01;7.20;;;4.20;;
37559;SDS011;23398;50.928;7.084;2023-03-02T06:51:26;6.83;;;4.07;;
37559;SDS011;23398;50.928;7.084;2023-03-02T06:53:52;7.60;;;4.47;;
37559;SDS011;23398;50.928;7.084;2023-03-02T06:56:17;8.63;;;4.23;;
37559;SDS011;23398;50.928;7.084;2023-03-02T06:58:43;6.23;;;3.60;;
37559;SDS011;23398;50.928;7.084;2023-03-02T07:01:09;7.93;;;4.27;;
37559;SDS011;23398;50.928;7.084;2023-03-02T07:03:34;7.00;;;4.10;;
37559;SDS011;23398;50.928;7.084;2023-03-02T07:06:00;7.27;;;3.90;;
37559;SDS011;23398;50.928;7.084;2023-03-02T07:08:26;6.63;;;3.77;;
37559;SDS011;23398;50.928;7.084;2023-03-02T07:10:52;7.47;;;3.97;;
37559;SDS011;23398;50.928;7.084;2023-03-02T07:13:18;6.47;;;3.70;;
37559;SDS011;23398;50.928;7.084;2023-03-02T07:15:43;7.20;;;3.93;;
37559;SDS011;23398;50.928;7.084;2023-03-02T07:18:09;6.13;;;4.00;;
37559;SDS011;23398;50.928;7.084;2023-03-02T07:20:35;7.30;;;4.23;;
37559;SDS011;23398;50.928;7.084;2023-03-02T07:23:00;8.43;;;4.53;;
37559;SDS011;23398;50.928;7.084;2023-03-02T07:25:26;7.37;;;4.50;;
37559;SDS011;23398;50.928;7.084;2023-03-02T07:27:51;8.03;;;4.00;;
37559;SDS011;23398;50.928;7.084;2023-03-02T07:30:17;8.03;;;4.53;;
37559;SDS011;23398;50.928;7.084;2023-03-02T07:32:46;7.33;;;3.90;;
37559;SDS011;23398;50.928;7.084;2023-03-02T07:35:12;9.40;;;4.50;;
37559;SDS011;23398;50.928;7.084;2023-03-02T07:37:38;6.67;;;4.83;;
37559;SDS011;23398;50.928;7.084;2023-03-02T07:40:04;7.93;;;5.20;;
37559;SDS011;23398;50.928;7.084;2023-03-02T07:42:30;6.77;;;4.57;;
37559;SDS011;23398;50.928;7.084;2023-03-02T07:44:56;8.68;;;4.80;;
37559;SDS011;23398;50.928;7.084;2023-03-02T07:47:22;6.07;;;4.43;;
37559;SDS011;23398;50.928;7.084;2023-03-02T07:49:48;6.07;;;4.13;;
37559;SDS011;23398;50.928;7.084;2023-03-02T07:52:13;6.22;;;4.28;;
37559;SDS011;23398;50.928;7.084;2023-03-02T07:54:39;6.38;;;4.80;;
37559;SDS011;23398;50.928;7.084;2023-03-02T07:57:04;7.10;;;4.47;;
37559;SDS011;23398;50.928;7.084;2023-03-02T07:59:30;5.53;;;4.25;;
37559;SDS011;23398;50.928;7.084;2023-03-02T08:01:57;7.18;;;5.10;;
37559;SDS011;23398;50.928;7.084;2023-03-02T08:04:23;10.27;;;5.97;;
37559;SDS011;23398;50.928;7.084;2023-03-02T08:06:49;7.65;;;5.78;;
37559;SDS011;23398;50.928;7.084;2023-03-02T08:09:15;7.18;;;4.85;;
37559;SDS011;23398;50.928;7.084;2023-03-02T08:11:41;6.72;;;4.53;;
37559;SDS011;23398;50.928;7.084;2023-03-02T08:14:07;6.97;;;4.72;;
37559;SDS011;23398;50.928;7.084;2023-03-02T08:16:33;5.97;;;4.70;;
37559;SDS011;23398;50.928;7.084;2023-03-02T08:18:58;7.15;;;5.00;;
37559;SDS011;23398;50.928;7.084;2023-03-02T08:21:24;5.75;;;5.03;;
37559;SDS011;23398;50.928;7.084;2023-03-02T08:23:51;5.80;;;4.82;;
37559;SDS011;23398;50.928;7.084;2023-03-02T08:26:17;6.90;;;5.05;;
37559;SDS011;23398;50.928;7.084;2023-03-02T08:28:44;6.05;;;4.85;;
37559;SDS011;23398;50.928;7.084;2023-03-02T08:31:10;7.03;;;4.82;;
37559;SDS011;23398;50.928;7.084;2023-03-02T08:33:36;5.65;;;4.95;;
37559;SDS011;23398;50.928;7.084;2023-03-02T08:36:03;5.60;;;4.85;;
37559;SDS011;23398;50.928;7.084;2023-03-02T08:38:35;5.22;;;4.68;;
37559;SDS011;23398;50.928;7.084;2023-03-02T08:41:04;6.13;;;5.03;;
37559;SDS011;23398;50.928;7.084;2023-03-02T08:43:31;5.55;;;4.70;;
37559;SDS011;23398;50.928;7.084;2023-03-02T08:45:58;5.97;;;4.85;;
37559;SDS011;23398;50.928;7.084;2023-03-02T08:48:24;7.55;;;5.20;;
37559;SDS011;23398;50.928;7.084;2023-03-02T08:53:28;6.63;;;5.32;;
37559;SDS011;23398;50.928;7.084;2023-03-02T08:55:55;5.82;;;5.18;;
37559;SDS011;23398;50.928;7.084;2023-03-02T08:58:20;13.40;;;10.43;;
37559;SDS011;23398;50.928;7.084;2023-03-02T09:00:46;9.35;;;7.35;;
37559;SDS011;23398;50.928;7.084;2023-03-02T09:03:12;6.28;;;5.57;;
37559;SDS011;23398;50.928;7.084;2023-03-02T09:05:38;6.32;;;5.10;;
37559;SDS011;23398;50.928;7.084;2023-03-02T09:08:03;6.22;;;5.30;;
37559;SDS011;23398;50.928;7.084;2023-03-02T09:10:29;5.55;;;4.97;;
37559;SDS011;23398;50.928;7.084;2023-03-02T09:12:55;5.90;;;5.07;;
37559;SDS011;23398;50.928;7.084;2023-03-02T09:15:20;5.90;;;5.10;;
37559;SDS011;23398;50.928;7.084;2023-03-02T09:17:46;5.68;;;5.03;;
37559;SDS011;23398;50.928;7.084;2023-03-02T09:20:11;5.70;;;5.20;;
37559;SDS011;23398;50.928;7.084;2023-03-02T09:22:38;6.20;;;5.40;;
37559;SDS011;23398;50.928;7.084;2023-03-02T09:25:04;6.82;;;5.65;;
37559;SDS011;23398;50.928;7.084;2023-03-02T09:27:31;6.10;;;5.15;;
37559;SDS011;23398;50.928;7.084;2023-03-02T09:29:57;6.22;;;5.03;;
37559;SDS011;23398;50.928;7.084;2023-03-02T09:32:22;6.63;;;5.85;;
37559;SDS011;23398;50.928;7.084;2023-03-02T09:34:49;5.97;;;5.38;;
37559;SDS011;23398;50.928;7.084;2023-03-02T09:37:14;6.25;;;5.50;;
37559;SDS011;23398;50.928;7.084;2023-03-02T09:39:40;6.20;;;5.35;;
37559;SDS011;23398;50.928;7.084;2023-03-02T09:47:09;4.93;;;4.47;;
37559;SDS011;23398;50.928;7.084;2023-03-02T09:52:34;7.00;;;4.95;;
37559;SDS011;23398;50.928;7.084;2023-03-02T09:55:17;5.95;;;5.13;;
37559;SDS011;23398;50.928;7.084;2023-03-02T09:57:46;5.18;;;4.70;;
37559;SDS011;23398;50.928;7.084;2023-03-02T10:00:18;5.30;;;4.72;;
37559;SDS011;23398;50.928;7.084;2023-03-02T10:02:52;6.32;;;5.30;;
37559;SDS011;23398;50.928;7.084;2023-03-02T10:05:27;6.13;;;5.22;;
37559;SDS011;23398;50.928;7.084;2023-03-02T10:07:58;5.35;;;4.85;;
37559;SDS011;23398;50.928;7.084;2023-03-02T10:10:39;5.25;;;4.75;;
37559;SDS011;23398;50.928;7.084;2023-03-02T10:18:27;5.65;;;5.15;;
37559;SDS011;23398;50.928;7.084;2023-03-02T10:28:48;11.00;;;8.82;;
37559;SDS011;23398;50.928;7.084;2023-03-02T10:31:31;10.00;;;6.90;;
37559;SDS011;23398;50.928;7.084;2023-03-02T10:33:57;6.18;;;5.53;;
37559;SDS011;23398;50.928;7.084;2023-03-02T10:36:25;6.20;;;5.35;;
37559;SDS011;23398;50.928;7.084;2023-03-02T10:38:56;6.22;;;5.03;;
37559;SDS011;23398;50.928;7.084;2023-03-02T10:41:25;6.05;;;5.40;;
37559;SDS011;23398;50.928;7.084;2023-03-02T10:43:58;6.75;;;5.38;;
37559;SDS011;23398;50.928;7.084;2023-03-02T10:46:38;6.30;;;5.20;;
37559;SDS011;23398;50.928;7.084;2023-03-02T10:49:17;7.20;;;5.65;;
37559;SDS011;23398;50.928;7.084;2023-03-02T10:52:05;7.15;;;5.40;;
37559;SDS011;23398;50.928;7.084;2023-03-02T10:54:32;6.95;;;5.55;;
37559;SDS011;23398;50.928;7.084;2023-03-02T10:57:00;7.07;;;5.53;;
37559;SDS011;23398;50.928;7.084;2023-03-02T10:59:38;6.35;;;5.32;;
37559;SDS011;23398;50.928;7.084;2023-03-02T11:02:15;6.00;;;5.07;;
37559;SDS011;23398;50.928;7.084;2023-03-02T11:04:46;7.43;;;5.82;;
37559;SDS011;23398;50.928;7.084;2023-03-02T11:07:16;7.43;;;5.70;;
37559;SDS011;23398;50.928;7.084;2023-03-02T11:09:54;7.45;;;5.40;;
37559;SDS011;23398;50.928;7.084;2023-03-02T11:12:24;6.90;;;5.20;;
37559;SDS011;23398;50.928;7.084;2023-03-02T11:14:59;8.32;;;5.47;;
37559;SDS011;23398;50.928;7.084;2023-03-02T11:17:31;6.88;;;5.32;;
37559;SDS011;23398;50.928;7.084;2023-03-02T11:20:00;6.63;;;5.53;;
37559;SDS011;23398;50.928;7.084;2023-03-02T11:22:40;7.28;;;5.47;;
37559;SDS011;23398;50.928;7.084;2023-03-02T11:25:20;7.28;;;5.43;;
37559;SDS011;23398;50.928;7.084;2023-03-02T11:28:07;7.57;;;5.72;;
37559;SDS011;23398;50.928;7.084;2023-03-02T11:30:45;6.82;;;5.30;;
37559;SDS011;23398;50.928;7.084;2023-03-02T11:33:18;8.25;;;5.65;;
37559;SDS011;23398;50.928;7.084;2023-03-02T11:35:51;11.82;;;5.53;;
37559;SDS011;23398;50.928;7.084;2023-03-02T11:38:35;6.82;;;5.53;;
37559;SDS011;23398;50.928;7.084;2023-03-02T11:43:54;10.25;;;6.90;;
37559;SDS011;23398;50.928;7.084;2023-03-02T11:46:29;9.40;;;5.88;;
37559;SDS011;23398;50.928;7.084;2023-03-02T11:48:58;7.93;;;5.50;;
37559;SDS011;23398;50.928;7.084;2023-03-02T11:51:37;7.60;;;5.88;;
37559;SDS011;23398;50.928;7.084;2023-03-02T11:56:46;7.75;;;6.00;;
37559;SDS011;23398;50.928;7.084;2023-03-02T11:59:14;9.85;;;6.40;;
37559;SDS011;23398;50.928;7.084;2023-03-02T12:01:43;8.65;;;6.05;;
37559;SDS011;23398;50.928;7.084;2023-03-02T12:04:29;7.25;;;5.78;;
37559;SDS011;23398;50.928;7.084;2023-03-02T12:06:57;8.40;;;6.00;;
37559;SDS011;23398;50.928;7.084;2023-03-02T12:09:26;8.18;;;5.72;;
37559;SDS011;23398;50.928;7.084;2023-03-02T12:12:22;9.60;;;7.40;;
37559;SDS011;23398;50.928;7.084;2023-03-02T12:14:50;8.02;;;6.15;;
37559;SDS011;23398;50.928;7.084;2023-03-02T12:19:45;9.68;;;5.30;;
37559;SDS011;23398;50.928;7.084;2023-03-02T12:22:12;8.43;;;6.03;;
37559;SDS011;23398;50.928;7.084;2023-03-02T12:24:40;8.68;;;5.63;;
37559;SDS011;23398;50.928;7.084;2023-03-02T12:34:55;6.93;;;5.45;;
37559;SDS011;23398;50.928;7.084;2023-03-02T12:37:28;7.05;;;5.55;;
37559;SDS011;23398;50.928;7.084;2023-03-02T12:48:03;9.68;;;6.00;;
37559;SDS011;23398;50.928;7.084;2023-03-02T12:50:39;10.00;;;7.63;;
37559;SDS011;23398;50.928;7.084;2023-03-02T12:53:12;8.20;;;5.70;;
37559;SDS011;23398;50.928;7.084;2023-03-02T12:55:41;8.93;;;5.63;;
37559;SDS011;23398;50.928;7.084;2023-03-02T12:58:15;6.20;;;5.30;;
37559;SDS011;23398;50.928;7.084;2023-03-02T13:00:48;7.30;;;5.28;;
37559;SDS011;23398;50.928;7.084;2023-03-02T13:03:18;7.32;;;5.47;;
37559;SDS011;23398;50.928;7.084;2023-03-02T13:05:44;7.90;;;5.43;;
37559;SDS011;23398;50.928;7.084;2023-03-02T13:10:52;7.78;;;5.25;;
37559;SDS011;23398;50.928;7.084;2023-03-02T13:13:24;7.10;;;4.88;;
37559;SDS011;23398;50.928;7.084;2023-03-02T13:15:53;6.15;;;4.75;;
37559;SDS011;23398;50.928;7.084;2023-03-02T13:18:24;6.53;;;5.20;;
37559;SDS011;23398;50.928;7.084;2023-03-02T13:20:55;6.32;;;4.78;;
37559;SDS011;23398;50.928;7.084;2023-03-02T13:23:22;5.75;;;4.80;;
37559;SDS011;23398;50.928;7.084;2023-03-02T13:26:01;7.07;;;4.68;;
37559;SDS011;23398;50.928;7.084;2023-03-02T13:30:55;7.22;;;5.28;;
37559;SDS011;23398;50.928;7.084;2023-03-02T13:33:23;7.13;;;5.30;;
37559;SDS011;23398;50.928;7.084;2023-03-02T13:35:50;7.47;;;5.00;;
37559;SDS011;23398;50.928;7.084;2023-03-02T13:38:17;6.88;;;4.68;;
37559;SDS011;23398;50.928;7.084;2023-03-02T13:40:45;7.03;;;5.10;;
37559;SDS011;23398;50.928;7.084;2023-03-02T13:48:25;7.20;;;4.93;;
37559;SDS011;23398;50.928;7.084;2023-03-02T13:53:23;8.85;;;6.65;;
37559;SDS011;23398;50.928;7.084;2023-03-02T13:55:51;6.93;;;5.18;;
37559;SDS011;23398;50.928;7.084;2023-03-02T13:58:18;5.28;;;4.50;;
37559;SDS011;23398;50.928;7.084;2023-03-02T14:00:46;9.63;;;5.68;;
37559;SDS011;23398;50.928;7.084;2023-03-02T14:03:26;8.95;;;5.32;;
37559;SDS011;23398;50.928;7.084;2023-03-02T14:05:54;6.63;;;4.78;;
37559;SDS011;23398;50.928;7.084;2023-03-02T14:08:20;6.65;;;4.43;;
37559;SDS011;23398;50.928;7.084;2023-03-02T14:10:46;5.85;;;4.10;;
37559;SDS011;23398;50.928;7.084;2023-03-02T14:13:24;6.72;;;4.18;;
37559;SDS011;23398;50.928;7.084;2023-03-02T14:16:01;5.57;;;3.55;;
37559;SDS011;23398;50.928;7.084;2023-03-02T14:21:09;7.00;;;3.78;;
37559;SDS011;23398;50.928;7.084;2023-03-02T14:23:37;6.43;;;3.35;;
37559;SDS011;23398;50.928;7.084;2023-03-02T14:26:08;5.50;;;4.07;;
37559;SDS011;23398;50.928;7.084;2023-03-02T14:29:02;5.30;;;4.35;;
37559;SDS011;23398;50.928;7.084;2023-03-02T14:31:44;5.35;;;3.75;;
37559;SDS011;23398;50.928;7.084;2023-03-02T14:34:13;5.60;;;4.28;;
37559;SDS011;23398;50.928;7.084;2023-03-02T14:36:40;5.65;;;4.18;;
37559;SDS011;23398;50.928;7.084;2023-03-02T14:39:11;4.43;;;3.63;;
37559;SDS011;23398;50.928;7.084;2023-03-02T14:41:46;4.22;;;3.63;;
37559;SDS011;23398;50.928;7.084;2023-03-02T14:44:13;5.97;;;4.35;;
37559;SDS011;23398;50.928;7.084;2023-03-02T14:46:38;8.48;;;4.22;;
37559;SDS011;23398;50.928;7.084;2023-03-02T14:49:04;5.45;;;3.38;;
37559;SDS011;23398;50.928;7.084;2023-03-02T14:51:30;3.45;;;3.00;;
37559;SDS011;23398;50.928;7.084;2023-03-02T14:53:59;5.78;;;4.35;;
37559;SDS011;23398;50.928;7.084;2023-03-02T14:56:27;4.75;;;4.03;;
37559;SDS011;23398;50.928;7.084;2023-03-02T14:58:53;5.63;;;3.78;;
37559;SDS011;23398;50.928;7.084;2023-03-02T15:01:19;5.30;;;4.00;;
37559;SDS011;23398;50.928;7.084;2023-03-02T15:03:47;5.65;;;4.20;;
37559;SDS011;23398;50.928;7.084;2023-03-02T15:06:29;5.28;;;3.72;;
37559;SDS011;23398;50.928;7.084;2023-03-02T15:08:57;6.53;;;4.10;;
37559;SDS011;23398;50.928;7.084;2023-03-02T15:11:24;5.38;;;3.72;;
37559;SDS011;23398;50.928;7.084;2023-03-02T15:13:51;5.57;;;3.65;;
37559;SDS011;23398;50.928;7.084;2023-03-02T15:16:17;6.30;;;4.60;;
37559;SDS011;23398;50.928;7.084;2023-03-02T15:18:43;4.90;;;3.63;;
37559;SDS011;23398;50.928;7.084;2023-03-02T15:21:19;4.68;;;3.60;;
37559;SDS011;23398;50.928;7.084;2023-03-02T15:23:47;4.63;;;3.40;;
37559;SDS011;23398;50.928;7.084;2023-03-02T15:26:13;4.93;;;3.80;;
37559;SDS011;23398;50.928;7.084;2023-03-02T15:28:39;4.68;;;3.55;;
37559;SDS011;23398;50.928;7.084;2023-03-02T15:31:09;4.82;;;2.97;;
37559;SDS011;23398;50.928;7.084;2023-03-02T15:33:36;5.25;;;3.65;;
37559;SDS011;23398;50.928;7.084;2023-03-02T15:36:02;6.10;;;4.60;;
37559;SDS011;23398;50.928;7.084;2023-03-02T15:38:30;4.50;;;3.58;;
37559;SDS011;23398;50.928;7.084;2023-03-02T15:40:56;4.78;;;3.20;;
37559;SDS011;23398;50.928;7.084;2023-03-02T15:43:21;5.80;;;3.95;;
37559;SDS011;23398;50.928;7.084;2023-03-02T15:45:48;4.65;;;3.47;;
37559;SDS011;23398;50.928;7.084;2023-03-02T15:48:14;4.65;;;3.75;;
37559;SDS011;23398;50.928;7.084;2023-03-02T15:50:39;4.88;;;3.67;;
37559;SDS011;23398;50.928;7.084;2023-03-02T15:53:05;4.28;;;3.28;;
37559;SDS011;23398;50.928;7.084;2023-03-02T15:55:31;5.68;;;3.22;;
37559;SDS011;23398;50.928;7.084;2023-03-02T15:57:56;4.32;;;3.05;;
37559;SDS011;23398;50.928;7.084;2023-03-02T16:00:23;5.05;;;3.10;;
37559;SDS011;23398;50.928;7.084;2023-03-02T16:02:50;4.07;;;3.30;;
37559;SDS011;23398;50.928;7.084;2023-03-02T16:05:15;5.22;;;3.05;;
37559;SDS011;23398;50.928;7.084;2023-03-02T16:07:41;3.42;;;2.67;;